Time;durP1;ratioP1;P1;durP2;ratioP2;P2;SDS_P1;SDS_P2;PMS_P1;PMS_P2;Temp;Humidity;BMP_temperature;BMP_pressure;BME280_temperature;BME280_humidity;BME280_pressure;Samples;Min_cycle;Max_cycle;Signal;HPM_P1;HPM_P2
2021/01/18 00:00:26;;;;;;;246.57;94.03;;;-9.80;67.70;;;;;;4868000;28;92201;-74
2021/01/18 00:02:52;;;;;;;249.87;93.13;;;-9.70;67.40;;;;;;4883837;28;96912;-74
2021/01/18 00:05:18;;;;;;;250.83;96.20;;;-9.60;67.10;;;;;;4884259;28;93476;-74
2021/01/18 00:07:49;;;;;;;245.67;95.17;;;-9.60;67.00;;;;;;4901610;28;92000;-74
2021/01/18 00:10:23;;;;;;;265.60;99.40;;;-9.50;66.90;;;;;;4901956;28;92098;-74
2021/01/18 00:12:51;;;;;;;253.37;95.90;;;-9.50;66.60;;;;;;4868369;28;96476;-75
2021/01/18 00:15:19;;;;;;;261.40;96.23;;;-9.50;66.30;;;;;;4884172;28;95920;-74
2021/01/18 00:17:45;;;;;;;250.50;95.13;;;-9.40;66.20;;;;;;4867459;28;92212;-74
2021/01/18 00:20:15;;;;;;;244.60;95.20;;;-9.40;65.80;;;;;;4902196;28;91427;-74
2021/01/18 00:22:42;;;;;;;234.47;87.33;;;-9.50;65.50;;;;;;4900955;28;92093;-73
2021/01/18 00:25:14;;;;;;;253.97;93.77;;;-9.50;65.20;;;;;;4868247;28;96123;-74
2021/01/18 00:27:40;;;;;;;249.80;89.23;;;-9.50;65.20;;;;;;4867349;28;92773;-74
2021/01/18 00:30:09;;;;;;;243.07;90.07;;;-9.60;65.50;;;;;;4884156;28;92124;-74
2021/01/18 00:32:36;;;;;;;232.13;87.20;;;-9.70;65.60;;;;;;4882534;28;96547;-74
2021/01/18 00:35:03;;;;;;;234.10;89.60;;;-9.70;66.00;;;;;;4901239;28;92874;-74
2021/01/18 00:37:29;;;;;;;231.27;89.40;;;-9.80;66.40;;;;;;4900747;28;91971;-74
2021/01/18 00:39:54;;;;;;;244.20;92.67;;;-9.80;66.70;;;;;;4868316;28;92139;-74
2021/01/18 00:42:21;;;;;;;226.63;88.67;;;-9.90;66.90;;;;;;4883886;28;96414;-75
2021/01/18 00:44:47;;;;;;;254.33;94.70;;;-9.90;66.90;;;;;;4901508;28;93995;-74
2021/01/18 00:47:14;;;;;;;256.83;91.40;;;-9.90;67.10;;;;;;4868013;28;92238;-74
2021/01/18 00:49:40;;;;;;;242.87;95.03;;;-10.00;67.10;;;;;;4866946;28;92341;-73
2021/01/18 00:52:06;;;;;;;247.60;91.67;;;-10.00;67.20;;;;;;4867164;28;97798;-74
2021/01/18 00:54:32;;;;;;;267.17;96.37;;;-9.90;67.20;;;;;;4866920;28;97056;-74
2021/01/18 00:57:11;;;;;;;241.30;91.63;;;-10.00;66.70;;;;;;4869506;28;92490;-74
2021/01/18 00:59:40;;;;;;;266.67;95.83;;;-9.90;66.70;;;;;;4900427;28;92359;-74
2021/01/18 01:02:07;;;;;;;250.83;92.27;;;-9.90;66.40;;;;;;4867814;28;96216;-74
2021/01/18 01:04:34;;;;;;;270.00;97.50;;;-10.00;66.50;;;;;;4882721;28;95819;-73
2021/01/18 01:07:00;;;;;;;257.10;93.17;;;-10.00;66.50;;;;;;4883992;28;91896;-74
2021/01/18 01:09:26;;;;;;;255.63;96.27;;;-10.00;66.30;;;;;;4883275;28;91996;-74
2021/01/18 01:11:52;;;;;;;271.57;103.60;;;-9.80;66.00;;;;;;4883658;28;93235;-76
2021/01/18 01:14:17;;;;;;;270.20;99.57;;;-9.90;65.80;;;;;;4882665;28;96789;-76
2021/01/18 01:16:44;;;;;;;280.90;104.17;;;-10.00;65.60;;;;;;4866557;28;92864;-74
2021/01/18 01:19:10;;;;;;;270.17;102.87;;;-10.00;66.00;;;;;;4866874;28;91901;-74
2021/01/18 01:21:36;;;;;;;278.23;104.87;;;-10.00;66.20;;;;;;4881903;28;97035;-76
2021/01/18 01:24:02;;;;;;;282.27;103.53;;;-10.10;66.40;;;;;;4882729;28;96113;-74
2021/01/18 01:26:28;;;;;;;287.60;102.67;;;-10.20;66.80;;;;;;4866613;28;91896;-74
2021/01/18 01:28:54;;;;;;;274.87;98.43;;;-10.20;67.10;;;;;;4900155;28;92084;-74
2021/01/18 01:31:20;;;;;;;266.10;99.80;;;-10.40;67.20;;;;;;4867247;28;96191;-74
2021/01/18 01:33:46;;;;;;;269.67;100.37;;;-10.50;68.00;;;;;;4882487;28;95673;-75
2021/01/18 01:36:12;;;;;;;263.47;95.97;;;-10.50;68.30;;;;;;4866975;28;91811;-74
2021/01/18 01:38:38;;;;;;;255.73;97.30;;;-10.50;68.20;;;;;;4866133;28;92082;-74
2021/01/18 01:41:04;;;;;;;248.00;89.70;;;-10.50;68.10;;;;;;4866696;28;97581;-74
2021/01/18 01:43:30;;;;;;;252.17;91.63;;;-10.50;67.70;;;;;;4898429;28;94330;-74
2021/01/18 01:45:56;;;;;;;236.07;90.27;;;-10.60;67.80;;;;;;4900433;28;91893;-74
2021/01/18 01:48:22;;;;;;;245.03;89.23;;;-10.60;67.80;;;;;;4867263;28;92111;-73
2021/01/18 01:50:48;;;;;;;226.30;83.50;;;-10.70;67.80;;;;;;4899353;28;93434;-74
2021/01/18 01:53:26;;;;;;;231.90;84.37;;;-10.70;68.00;;;;;;4882699;28;96185;-74
2021/01/18 01:55:52;;;;;;;222.23;81.83;;;-10.80;67.80;;;;;;4883046;28;91819;-74
2021/01/18 01:58:19;;;;;;;228.60;85.90;;;-10.80;67.90;;;;;;4883598;28;91439;-73
2021/01/18 02:00:45;;;;;;;223.37;84.20;;;-10.80;68.10;;;;;;4881833;28;96733;-74
2021/01/18 02:03:11;;;;;;;247.83;87.07;;;-10.80;67.90;;;;;;4899915;28;92742;-74
2021/01/18 02:05:38;;;;;;;226.03;82.37;;;-10.70;67.50;;;;;;4881587;28;93183;-75
2021/01/18 02:08:09;;;;;;;233.57;87.13;;;-10.70;67.30;;;;;;4867161;28;92484;-76
2021/01/18 02:10:36;;;;;;;223.30;79.40;;;-10.60;67.50;;;;;;4866050;28;96779;-73
2021/01/18 02:13:43;;;;;;;223.30;83.17;;;-10.70;67.40;;;;;;4899739;28;93101;-75
2021/01/18 02:16:30;;;;;;;216.40;83.70;;;-10.50;66.90;;;;;;4864963;28;92082;-75
2021/01/18 02:19:08;;;;;;;227.43;84.40;;;-10.40;66.30;;;;;;4882724;28;91992;-75
2021/01/18 02:22:08;;;;;;;219.07;78.77;;;-10.40;66.20;;;;;;4866804;28;96128;-75
2021/01/18 02:25:04;;;;;;;220.77;82.73;;;-10.50;66.30;;;;;;4866297;28;95918;-76
2021/01/18 02:28:08;;;;;;;216.97;83.27;;;-10.40;66.20;;;;;;4899162;28;91956;-75
2021/01/18 02:30:58;;;;;;;210.93;82.90;;;-10.40;66.10;;;;;;4899187;28;92051;-75
2021/01/18 02:33:36;;;;;;;208.13;77.97;;;-10.20;66.00;;;;;;4865860;28;96161;-75
2021/01/18 02:36:29;;;;;;;208.37;77.90;;;-10.10;65.30;;;;;;4882075;28;94702;-75
2021/01/18 02:39:03;;;;;;;208.97;80.13;;;-10.00;65.20;;;;;;4882364;28;91993;-75
2021/01/18 02:42:03;;;;;;;197.77;75.33;;;-10.00;65.40;;;;;;4882607;28;91925;-75
2021/01/18 02:44:30;;;;;;;186.87;72.10;;;-10.00;65.70;;;;;;4882212;28;95916;-75
2021/01/18 02:46:58;;;;;;;186.33;68.93;;;-10.00;65.90;;;;;;4865948;28;96370;-75
2021/01/18 02:49:24;;;;;;;174.13;68.60;;;-9.90;66.30;;;;;;4899781;28;91814;-75
2021/01/18 02:51:58;;;;;;;181.13;67.90;;;-9.90;66.70;;;;;;4866112;28;92169;-74
2021/01/18 02:54:25;;;;;;;171.17;61.77;;;-10.00;67.00;;;;;;4882078;28;96280;-75
2021/01/18 02:56:53;;;;;;;179.53;66.70;;;-10.10;67.50;;;;;;4884619;28;93025;-75
2021/01/18 02:59:19;;;;;;;158.87;63.30;;;-10.10;68.10;;;;;;4869466;28;92957;-75
2021/01/18 03:02:06;;;;;;;176.87;64.27;;;-10.00;68.00;;;;;;4902115;28;92095;-75
2021/01/18 03:04:33;;;;;;;173.80;62.33;;;-9.80;67.70;;;;;;4885183;28;93287;-75
2021/01/18 03:07:05;;;;;;;172.93;66.13;;;-9.80;68.00;;;;;;4885622;28;96481;-74
2021/01/18 03:09:34;;;;;;;;;;;-9.80;68.30;;;;;;4886600;28;92036;-75
2021/01/18 03:12:05;;;;;;;154.37;58.87;;;-9.70;67.90;;;;;;4887069;28;92125;-75
2021/01/18 03:14:41;;;;;;;158.03;59.47;;;-9.70;67.50;;;;;;4902826;28;93275;-76
2021/01/18 03:17:13;;;;;;;164.20;59.23;;;-9.80;67.40;;;;;;4885321;28;92893;-75
2021/01/18 03:19:43;;;;;;;160.50;63.10;;;-9.80;67.70;;;;;;4884113;28;91989;-76
2021/01/18 03:22:10;;;;;;;154.83;60.40;;;-9.80;67.90;;;;;;4902765;28;92163;-75
2021/01/18 03:24:36;;;;;;;162.80;62.00;;;-9.80;68.10;;;;;;4901180;28;94232;-75
2021/01/18 03:27:04;;;;;;;162.60;59.83;;;-9.80;68.00;;;;;;4869041;28;97238;-75
2021/01/18 03:29:30;;;;;;;161.87;63.30;;;-9.80;67.60;;;;;;4885100;28;92351;-75
2021/01/18 03:31:56;;;;;;;161.13;62.07;;;-9.70;67.50;;;;;;4901656;28;92406;-75
2021/01/18 03:34:22;;;;;;;166.37;61.00;;;-9.70;67.60;;;;;;4884803;28;96576;-76
2021/01/18 03:36:48;;;;;;;168.73;64.27;;;-9.70;67.40;;;;;;4867935;28;96117;-75
2021/01/18 03:39:14;;;;;;;164.17;62.13;;;-9.60;66.80;;;;;;4869327;28;92013;-74
2021/01/18 03:41:40;;;;;;;161.33;62.87;;;-9.70;67.00;;;;;;4868591;28;91548;-75
2021/01/18 03:44:06;;;;;;;150.53;57.17;;;-9.80;67.00;;;;;;4901978;28;93214;-75
2021/01/18 03:46:32;;;;;;;162.23;59.30;;;-9.80;67.20;;;;;;4884874;28;93662;-75
2021/01/18 03:48:57;;;;;;;165.87;62.80;;;-9.80;67.50;;;;;;4867928;28;92929;-75
2021/01/18 03:51:30;;;;;;;155.73;60.83;;;-9.90;66.60;;;;;;4902199;28;92147;-75
2021/01/18 03:53:57;;;;;;;157.00;63.13;;;-9.90;66.40;;;;;;4867853;28;96756;-74
2021/01/18 03:56:23;;;;;;;167.73;61.87;;;-9.90;66.70;;;;;;4884597;28;93161;-75
2021/01/18 03:58:49;;;;;;;170.77;60.97;;;-9.80;66.80;;;;;;4884372;28;92079;-75
2021/01/18 04:01:15;;;;;;;171.63;64.87;;;-9.90;66.90;;;;;;4868966;28;92309;-75
2021/01/18 04:03:41;;;;;;;168.93;61.97;;;-9.90;67.20;;;;;;4883531;28;96586;-76
2021/01/18 04:06:07;;;;;;;157.83;61.27;;;-10.00;67.70;;;;;;4868358;28;94877;-75
2021/01/18 04:08:33;;;;;;;164.10;62.63;;;-9.80;67.80;;;;;;4867897;28;92460;-74
2021/01/18 04:10:59;;;;;;;152.33;60.13;;;-9.70;67.20;;;;;;4884048;28;92402;-75
2021/01/18 04:13:25;;;;;;;163.13;61.27;;;-9.70;66.60;;;;;;4884026;28;94466;-75
2021/01/18 04:15:50;;;;;;;178.27;64.70;;;-9.60;66.20;;;;;;4883213;28;97198;-75
2021/01/18 04:18:16;;;;;;;165.10;65.13;;;-9.60;65.60;;;;;;4884405;28;92119;-74
2021/01/18 04:20:42;;;;;;;165.20;62.17;;;-9.60;65.50;;;;;;4901011;28;92059;-75
2021/01/18 04:23:08;;;;;;;169.77;63.27;;;-9.70;65.90;;;;;;4884040;28;96288;-76
2021/01/18 04:25:34;;;;;;;171.03;67.67;;;-9.70;66.50;;;;;;4901418;28;92566;-75
2021/01/18 04:28:02;;;;;;;162.63;64.30;;;-9.60;66.20;;;;;;4867801;28;92019;-75
2021/01/18 04:30:31;;;;;;;172.43;62.80;;;-9.70;65.90;;;;;;4884722;28;91420;-75
2021/01/18 04:33:08;;;;;;;167.33;64.27;;;-9.70;66.70;;;;;;4867352;28;94975;-75
2021/01/18 04:35:39;;;;;;;166.03;67.17;;;-9.60;66.60;;;;;;4868005;28;96053;-74
2021/01/18 04:38:05;;;;;;;176.50;65.83;;;-9.80;65.80;;;;;;4867604;28;93063;-75
2021/01/18 04:40:33;;;;;;;176.00;65.80;;;-9.70;66.40;;;;;;4868252;28;92182;-76
2021/01/18 04:42:59;;;;;;;184.60;69.20;;;-9.60;66.40;;;;;;4883281;28;95901;-75
2021/01/18 04:45:26;;;;;;;178.23;69.20;;;-9.60;66.40;;;;;;4884302;28;95965;-75
2021/01/18 04:47:54;;;;;;;183.20;70.87;;;-9.50;66.00;;;;;;4867540;28;91851;-76
2021/01/18 04:50:23;;;;;;;174.73;68.97;;;-9.50;65.70;;;;;;4868028;28;92465;-77
2021/01/18 04:53:16;;;;;;;173.40;67.57;;;-9.40;65.00;;;;;;4882661;28;97409;-75
2021/01/18 04:55:41;;;;;;;161.63;63.90;;;-9.40;64.60;;;;;;4899758;28;93563;-76
2021/01/18 04:58:18;;;;;;;168.60;64.97;;;-9.70;64.60;;;;;;4882888;28;92019;-75
2021/01/18 05:00:47;;;;;;;165.93;62.63;;;-10.00;65.80;;;;;;4867072;28;92142;-75
2021/01/18 05:03:16;;;;;;;162.50;65.57;;;-10.00;67.40;;;;;;4882902;28;93792;-75
2021/01/18 05:06:26;;;;;;;167.57;65.07;;;-9.90;67.40;;;;;;4866879;28;98813;-75
2021/01/18 05:09:24;;;;;;;169.00;67.13;;;-10.00;66.90;;;;;;4900017;28;92115;-76
2021/01/18 05:11:51;;;;;;;168.07;63.33;;;-10.10;67.30;;;;;;4883054;28;92080;-75
2021/01/18 05:14:17;;;;;;;172.43;63.13;;;-10.00;67.00;;;;;;4883292;28;96602;-75
2021/01/18 05:16:46;;;;;;;176.97;68.23;;;-10.10;67.10;;;;;;4882870;28;93004;-74
2021/01/18 05:19:13;;;;;;;165.43;62.20;;;-10.00;66.90;;;;;;4883337;28;91982;-78
2021/01/18 05:21:40;;;;;;;167.90;64.73;;;-9.90;66.90;;;;;;4901180;28;91304;-75
2021/01/18 05:24:07;;;;;;;163.63;63.13;;;-9.90;66.50;;;;;;4882548;28;97061;-75
2021/01/18 05:26:34;;;;;;;182.53;65.57;;;-10.00;67.00;;;;;;4867266;28;95949;-75
2021/01/18 05:29:00;;;;;;;168.50;64.70;;;-9.90;66.80;;;;;;4899418;28;93188;-75
2021/01/18 05:31:29;;;;;;;178.47;64.90;;;-9.80;66.70;;;;;;4883948;28;92046;-75
2021/01/18 05:34:02;;;;;;;178.60;70.17;;;-9.70;66.70;;;;;;4882168;28;96445;-74
2021/01/18 05:36:48;;;;;;;165.87;64.87;;;-9.70;66.10;;;;;;4867540;28;96589;-75
2021/01/18 05:39:18;;;;;;;185.07;66.97;;;-9.70;66.70;;;;;;4901255;28;92154;-75
2021/01/18 05:41:49;;;;;;;180.53;67.43;;;-9.60;66.30;;;;;;4882830;28;92434;-75
2021/01/18 05:44:16;;;;;;;177.55;68.43;;;-9.70;66.80;;;;;;4883272;28;92853;-75
2021/01/18 05:46:44;;;;;;;171.80;66.60;;;-9.60;67.00;;;;;;4900766;28;91765;-75
2021/01/18 05:49:18;;;;;;;168.57;65.83;;;-9.60;67.00;;;;;;4881853;28;92024;-75
2021/01/18 05:51:52;;;;;;;165.10;65.97;;;-9.60;66.70;;;;;;4882843;28;92490;-76
2021/01/18 05:54:24;;;;;;;179.03;65.60;;;-9.50;66.70;;;;;;4882453;28;93844;-77
2021/01/18 05:56:53;;;;;;;138.10;53.17;;;-9.40;66.50;;;;;;4866232;28;96218;-75
2021/01/18 05:59:23;;;;;;;176.17;66.07;;;-9.30;66.30;;;;;;4883579;28;92420;-75
2021/01/18 06:01:51;;;;;;;170.93;65.23;;;-9.30;65.90;;;;;;4866971;28;92079;-75
2021/01/18 06:04:28;;;;;;;176.40;64.67;;;-9.50;66.00;;;;;;4866835;28;97053;-75
2021/01/18 06:07:04;;;;;;;188.30;68.40;;;-9.50;66.90;;;;;;4881661;28;95864;-75
2021/01/18 06:09:46;;;;;;;196.67;72.23;;;-9.40;66.90;;;;;;4867852;28;91824;-75
2021/01/18 06:12:22;;;;;;;194.77;71.57;;;-9.30;66.60;;;;;;4883236;28;91284;-75
2021/01/18 06:15:07;;;;;;;196.63;68.97;;;-9.20;66.10;;;;;;4881777;28;95439;-75
2021/01/18 06:17:36;;;;;;;189.37;70.90;;;-9.20;65.90;;;;;;4881814;28;95951;-75
2021/01/18 06:20:04;;;;;;;186.07;69.97;;;-9.10;65.60;;;;;;4882490;28;93109;-75
2021/01/18 06:22:30;;;;;;;186.20;71.63;;;-9.10;65.90;;;;;;4883558;28;92110;-75
2021/01/18 06:24:56;;;;;;;181.33;68.77;;;-9.00;65.60;;;;;;4881698;28;96466;-75
2021/01/18 06:27:33;;;;;;;166.87;64.90;;;-9.10;65.60;;;;;;4866603;28;96183;-75
2021/01/18 06:29:59;;;;;;;173.13;66.27;;;-9.10;66.00;;;;;;4882800;28;92123;-76
2021/01/18 06:32:30;;;;;;;178.63;69.37;;;-9.20;66.10;;;;;;4883169;28;92376;-75
2021/01/18 06:35:05;;;;;;;179.30;66.93;;;-9.20;66.50;;;;;;4920636;28;93207;-75
2021/01/18 06:37:32;;;;;;;182.90;65.63;;;-9.30;67.10;;;;;;4920847;28;91856;-78
2021/01/18 06:40:05;;;;;;;176.60;67.03;;;-9.40;66.90;;;;;;4904180;28;91981;-76
2021/01/18 06:42:32;;;;;;;176.60;66.90;;;-9.40;67.70;;;;;;4921116;28;92103;-75
2021/01/18 06:44:58;;;;;;;184.47;68.43;;;-9.40;67.90;;;;;;4903224;28;97356;-75
2021/01/18 06:47:25;;;;;;;186.50;71.83;;;-9.50;68.50;;;;;;4921927;28;93857;-76
2021/01/18 06:49:54;;;;;;;180.57;70.17;;;-9.50;69.50;;;;;;4921659;28;91910;-75
2021/01/18 06:52:46;;;;;;;197.30;72.17;;;-9.40;68.80;;;;;;4904897;28;92269;-76
2021/01/18 06:55:23;;;;;;;182.70;70.20;;;-9.30;68.60;;;;;;4903719;28;96381;-75
2021/01/18 06:58:31;;;;;;;198.10;74.13;;;-9.20;68.50;;;;;;4920244;28;96207;-75
2021/01/18 07:01:02;;;;;;;195.37;72.20;;;-9.20;68.70;;;;;;4919802;28;91974;-75
2021/01/18 07:03:40;;;;;;;205.10;73.03;;;-9.30;69.30;;;;;;4905031;28;91855;-77
2021/01/18 07:06:17;;;;;;;178.33;68.13;;;-9.10;69.80;;;;;;4903113;28;95497;-75
2021/01/18 07:08:50;;;;;;;186.57;69.73;;;-9.20;69.30;;;;;;4920742;28;92745;-75
2021/01/18 07:11:17;;;;;;;178.87;71.70;;;-9.30;70.30;;;;;;4919949;28;92819;-75
2021/01/18 07:13:49;;;;;;;194.93;72.43;;;-9.20;70.80;;;;;;4904605;28;92201;-75
2021/01/18 07:16:24;;;;;;;192.30;72.32;;;-8.90;70.40;;;;;;4920468;28;93822;-76
2021/01/18 07:19:00;;;;;;;194.53;75.60;;;-8.80;70.10;;;;;;4895444;28;95587;-75
2021/01/18 07:21:30;;;;;;;203.93;76.87;;;-8.70;69.90;;;;;;4904798;28;92534;-75
2021/01/18 07:23:58;;;;;;;194.10;73.47;;;-8.60;70.30;;;;;;4895794;28;92074;-75
2021/01/18 07:26:53;;;;;;;198.90;73.27;;;-8.50;69.80;;;;;;4890543;28;95919;-75
2021/01/18 07:29:21;;;;;;;204.70;76.00;;;-8.50;70.00;;;;;;4885000;28;93899;-76
2021/01/18 07:31:50;;;;;;;190.03;71.30;;;-8.50;70.10;;;;;;4871394;28;92069;-75
2021/01/18 07:34:18;;;;;;;203.83;76.30;;;-8.40;70.40;;;;;;4887105;28;92236;-75
2021/01/18 07:36:44;;;;;;;192.93;73.13;;;-8.20;69.90;;;;;;4884421;28;94570;-75
2021/01/18 07:39:29;;;;;;;198.90;77.40;;;-8.00;69.40;;;;;;4884416;28;96989;-75
2021/01/18 07:41:55;;;;;;;206.80;78.53;;;-7.80;69.00;;;;;;4901434;28;92021;-75
2021/01/18 07:44:33;;;;;;;200.37;77.27;;;-7.60;68.70;;;;;;4879638;28;92241;-74
2021/01/18 07:47:05;;;;;;;197.60;77.37;;;-7.40;67.80;;;;;;4883736;28;95326;-76
2021/01/18 07:49:33;;;;;;;202.47;82.93;;;-7.30;66.80;;;;;;4902145;28;93263;-77
2021/01/18 07:52:18;;;;;;;210.27;79.33;;;-7.10;66.60;;;;;;4901934;28;91958;-75
2021/01/18 07:54:45;;;;;;;199.53;74.70;;;-7.30;66.70;;;;;;4869826;28;91398;-75
2021/01/18 07:57:29;;;;;;;208.57;79.23;;;-7.30;67.30;;;;;;4884157;28;94635;-75
2021/01/18 08:00:16;;;;;;;217.47;84.30;;;-7.30;67.70;;;;;;4884415;28;93396;-74
2021/01/18 08:02:49;;;;;;;207.47;79.43;;;-7.10;67.10;;;;;;4868421;28;92935;-75
2021/01/18 08:05:22;;;;;;;204.43;80.20;;;-7.10;67.20;;;;;;4901547;28;92165;-75
2021/01/18 08:08:04;;;;;;;193.23;76.70;;;-7.10;66.80;;;;;;4884377;28;96352;-75
2021/01/18 08:10:48;;;;;;;208.10;81.15;;;-7.10;66.80;;;;;;4868493;28;95887;-75
2021/01/18 08:13:34;;;;;;;206.67;78.63;;;-7.10;66.90;;;;;;4868133;28;91973;-75
2021/01/18 08:16:11;;;;;;;194.60;75.10;;;-7.30;67.30;;;;;;4900486;28;92068;-75
2021/01/18 08:18:50;;;;;;;201.63;78.03;;;-7.30;67.60;;;;;;4867022;28;96649;-75
2021/01/18 08:21:34;;;;;;;201.67;78.60;;;-7.20;67.50;;;;;;4868059;28;95517;-75
2021/01/18 08:24:09;;;;;;;202.00;82.17;;;-7.20;67.10;;;;;;4884501;28;91820;-75
2021/01/18 08:27:03;;;;;;;203.30;82.33;;;-7.10;67.10;;;;;;4885119;28;92228;-74
2021/01/18 08:29:33;;;;;;;202.87;80.50;;;-6.90;66.60;;;;;;4868342;28;97519;-74
2021/01/18 08:32:24;;;;;;;187.60;77.00;;;-6.70;65.80;;;;;;4900815;28;93953;-75
2021/01/18 08:34:52;;;;;;;183.60;74.97;;;-6.60;65.30;;;;;;4878170;28;93383;-75
2021/01/18 08:37:18;;;;;;;198.80;82.37;;;-6.30;64.80;;;;;;4889175;28;92655;-74
2021/01/18 08:39:59;;;;;;;221.73;81.77;;;-6.00;64.20;;;;;;4867954;28;96904;-74
2021/01/18 08:42:36;;;;;;;208.93;81.07;;;-5.50;62.80;;;;;;4867829;28;96931;-72
2021/01/18 08:45:30;;;;;;;206.73;84.57;;;-5.20;61.40;;;;;;4885916;28;92048;-72
2021/01/18 08:47:59;;;;;;;208.77;85.90;;;-5.10;61.30;;;;;;4896791;28;91561;-71
2021/01/18 08:50:37;;;;;;;213.07;84.80;;;-5.10;61.20;;;;;;4878902;28;96518;-72
2021/01/18 08:53:23;;;;;;;213.40;89.30;;;-5.10;61.40;;;;;;4914647;28;93054;-72
2021/01/18 08:56:00;;;;;;;219.97;92.57;;;-5.20;61.80;;;;;;4899807;28;93264;-71
2021/01/18 08:58:38;;;;;;;214.83;89.63;;;-5.20;61.60;;;;;;4867312;28;92100;-72
2021/01/18 09:01:16;;;;;;;237.50;95.73;;;-5.00;61.30;;;;;;4880646;28;96658;-73
2021/01/18 09:03:43;;;;;;;226.80;91.00;;;-4.60;61.00;;;;;;4898203;28;92669;-72
2021/01/18 09:06:10;;;;;;;215.23;89.57;;;-4.50;59.70;;;;;;4898156;28;92736;-73
2021/01/18 09:08:38;;;;;;;202.70;88.83;;;-4.50;59.80;;;;;;4863374;28;92602;-72
2021/01/18 09:11:07;;;;;;;210.90;90.63;;;-4.40;60.10;;;;;;4880523;28;93772;-72
2021/01/18 09:13:35;;;;;;;220.17;90.07;;;-4.50;60.10;;;;;;4898049;28;92916;-72
2021/01/18 09:16:08;;;;;;;202.77;86.87;;;-4.40;60.70;;;;;;4880564;28;92057;-72
2021/01/18 09:18:35;;;;;;;181.90;79.07;;;-4.40;60.30;;;;;;4880792;28;92119;-72
2021/01/18 09:21:05;;;;;;;202.43;84.00;;;-4.40;60.30;;;;;;4897517;28;94648;-73
2021/01/18 09:23:32;;;;;;;209.80;84.87;;;-4.30;60.30;;;;;;4881456;28;94053;-73
2021/01/18 09:26:13;;;;;;;210.93;86.60;;;-4.20;60.10;;;;;;4898238;28;92170;-73
2021/01/18 09:28:59;;;;;;;212.87;88.47;;;-4.20;59.80;;;;;;4865205;28;92106;-72
2021/01/18 09:31:26;;;;;;;209.20;89.43;;;-4.40;60.00;;;;;;4879659;28;96146;-72
2021/01/18 09:33:52;;;;;;;216.27;90.90;;;-4.40;60.50;;;;;;4880750;28;94219;-72
2021/01/18 09:36:22;;;;;;;203.93;87.93;;;-4.30;60.40;;;;;;4882956;28;92465;-72
2021/01/18 09:38:48;;;;;;;200.57;86.27;;;-4.20;60.10;;;;;;4868105;28;91407;-72
2021/01/18 09:41:15;;;;;;;209.50;90.40;;;-4.00;59.90;;;;;;4882625;28;93179;-72
2021/01/18 09:43:42;;;;;;;205.97;88.90;;;-3.80;59.20;;;;;;4883760;28;93141;-72
2021/01/18 09:46:08;;;;;;;216.33;92.93;;;-3.70;58.40;;;;;;4882362;28;93022;-73
2021/01/18 09:48:34;;;;;;;216.70;88.53;;;-3.70;58.60;;;;;;4883391;28;92177;-72
2021/01/18 09:51:10;;;;;;;237.53;93.37;;;-3.60;58.20;;;;;;4872495;28;96450;-73
2021/01/18 09:53:36;;;;;;;221.60;96.33;;;-3.70;58.20;;;;;;4896563;28;93389;-72
2021/01/18 09:56:23;;;;;;;225.33;92.27;;;-3.70;58.30;;;;;;4914168;28;91935;-73
2021/01/18 09:58:57;;;;;;;213.33;85.80;;;-3.60;58.50;;;;;;4886629;28;92291;-72
2021/01/18 10:01:32;;;;;;;213.93;90.03;;;-3.70;58.40;;;;;;4896794;28;93678;-72
2021/01/18 10:04:07;;;;;;;218.20;90.17;;;-3.70;59.20;;;;;;4894415;28;96450;-72
2021/01/18 10:06:34;;;;;;;222.63;94.00;;;-3.60;59.10;;;;;;4883260;28;91987;-72
2021/01/18 10:09:12;;;;;;;220.57;93.80;;;-3.50;58.50;;;;;;4883327;28;92109;-72
2021/01/18 10:11:50;;;;;;;210.73;88.33;;;-3.50;58.90;;;;;;4882911;28;94076;-72
2021/01/18 10:14:30;;;;;;;205.00;88.00;;;-3.50;59.20;;;;;;4898354;28;97121;-72
2021/01/18 10:17:07;;;;;;;212.63;90.17;;;-3.50;58.80;;;;;;4898727;28;92026;-72
2021/01/18 10:19:38;;;;;;;214.00;91.73;;;-3.50;59.10;;;;;;4883327;28;92078;-72
2021/01/18 10:22:05;;;;;;;212.60;92.47;;;-3.40;59.10;;;;;;4883131;28;92922;-73
2021/01/18 10:24:36;;;;;;;209.40;92.30;;;-3.30;58.90;;;;;;4897344;28;94763;-73
2021/01/18 10:27:10;;;;;;;220.37;95.30;;;-3.20;59.00;;;;;;4898666;28;92406;-73
2021/01/18 10:29:43;;;;;;;227.27;94.50;;;-3.20;59.10;;;;;;4899524;28;91437;-76
2021/01/18 10:32:09;;;;;;;214.27;91.70;;;-3.10;58.60;;;;;;4898506;28;96754;-75
2021/01/18 10:34:36;;;;;;;212.13;91.50;;;-3.10;58.70;;;;;;4899190;28;92944;-76
2021/01/18 10:37:17;;;;;;;213.43;94.10;;;-3.10;59.10;;;;;;4898747;28;93324;-75
2021/01/18 10:39:49;;;;;;;210.77;88.63;;;-3.10;59.70;;;;;;4898747;28;92095;-75
2021/01/18 10:42:21;;;;;;;193.20;89.03;;;-3.10;59.40;;;;;;4881937;28;96752;-75
2021/01/18 10:44:57;;;;;;;208.68;89.55;;;-3.00;59.40;;;;;;4882510;28;96349;-75
2021/01/18 10:47:26;;;;;;;197.67;83.63;;;-3.00;59.10;;;;;;4882118;28;92333;-74
2021/01/18 10:49:54;;;;;;;198.73;87.87;;;-3.00;59.40;;;;;;4898801;28;92048;-75
2021/01/18 10:52:37;;;;;;;197.90;87.20;;;-2.90;59.70;;;;;;4891315;28;95546;-73
2021/01/18 10:55:05;;;;;;;209.00;88.07;;;-2.80;59.40;;;;;;4891242;28;93088;-73
2021/01/18 10:57:45;;;;;;;192.47;83.40;;;-2.70;59.60;;;;;;4893165;28;92163;-73
2021/01/18 11:00:15;;;;;;;193.63;85.20;;;-2.80;59.30;;;;;;4895546;28;92143;-73
2021/01/18 11:02:51;;;;;;;178.10;80.00;;;-2.70;59.60;;;;;;4896605;28;96193;-72
2021/01/18 11:05:18;;;;;;;221.73;98.80;;;-2.70;59.40;;;;;;4894464;28;97112;-73
2021/01/18 11:07:46;;;;;;;203.50;87.97;;;-2.60;59.20;;;;;;4881447;28;92195;-74
2021/01/18 11:10:13;;;;;;;196.77;87.27;;;-2.60;58.90;;;;;;4899655;28;92175;-73
2021/01/18 11:12:41;;;;;;;192.30;80.07;;;-2.80;58.90;;;;;;4899839;28;96519;-72
2021/01/18 11:15:09;;;;;;;203.17;92.23;;;-2.70;59.60;;;;;;4895566;28;93073;-72
2021/01/18 11:17:36;;;;;;;181.87;80.20;;;-2.70;59.80;;;;;;4908844;28;92739;-72
2021/01/18 11:20:05;;;;;;;203.20;88.37;;;-2.60;59.70;;;;;;4887610;28;91357;-72
2021/01/18 11:22:31;;;;;;;185.30;83.10;;;-2.70;59.40;;;;;;4903709;28;93375;-72
2021/01/18 11:24:57;;;;;;;192.97;84.53;;;-2.80;59.70;;;;;;4903789;28;96492;-72
2021/01/18 11:27:23;;;;;;;193.70;84.10;;;-2.70;60.30;;;;;;4920079;28;93237;-72
2021/01/18 11:29:49;;;;;;;191.57;80.63;;;-2.70;60.60;;;;;;4910241;28;92144;-73
2021/01/18 11:32:16;;;;;;;189.97;83.57;;;-2.60;60.40;;;;;;4877676;28;96301;-73
2021/01/18 11:34:42;;;;;;;189.10;83.13;;;-2.50;60.00;;;;;;4910350;28;92533;-73
2021/01/18 11:37:09;;;;;;;198.73;86.77;;;-2.50;60.10;;;;;;4900161;28;92418;-73
2021/01/18 11:39:35;;;;;;;182.07;83.70;;;-2.30;59.90;;;;;;4879789;28;92172;-73
2021/01/18 11:42:03;;;;;;;180.40;84.27;;;-2.40;60.30;;;;;;4903043;28;92577;-72
2021/01/18 11:44:29;;;;;;;183.77;86.17;;;-2.30;60.40;;;;;;4895983;28;92666;-72
2021/01/18 11:46:56;;;;;;;186.00;84.73;;;-2.20;60.20;;;;;;4919208;28;92730;-72
2021/01/18 11:49:22;;;;;;;177.60;81.70;;;-2.20;60.20;;;;;;4884305;28;92235;-72
2021/01/18 11:51:49;;;;;;;184.33;79.73;;;-2.30;60.10;;;;;;4892280;28;94481;-72
2021/01/18 11:54:14;;;;;;;177.63;80.40;;;-2.40;60.10;;;;;;4916259;28;93665;-72
2021/01/18 11:56:40;;;;;;;186.47;81.40;;;-2.60;61.30;;;;;;4899186;28;92118;-72
2021/01/18 11:59:07;;;;;;;179.83;81.03;;;-2.70;61.70;;;;;;4885905;28;92382;-72
2021/01/18 12:01:33;;;;;;;173.50;78.93;;;-2.70;62.50;;;;;;4900674;28;92950;-72
2021/01/18 12:03:59;;;;;;;180.23;82.87;;;-2.70;62.20;;;;;;4895936;28;96422;-73
2021/01/18 12:06:38;;;;;;;187.43;85.03;;;-2.80;62.60;;;;;;4880138;28;92182;-72
2021/01/18 12:09:04;;;;;;;169.13;74.93;;;-2.80;63.00;;;;;;4900212;28;91397;-72
2021/01/18 12:11:34;;;;;;;181.57;78.93;;;-2.90;63.00;;;;;;4900077;28;92893;-72
2021/01/18 12:14:00;;;;;;;177.50;78.73;;;-2.80;63.50;;;;;;4884270;28;95902;-72
2021/01/18 12:16:26;;;;;;;178.03;79.13;;;-2.70;63.70;;;;;;4900489;28;93425;-72
2021/01/18 12:18:53;;;;;;;194.83;83.50;;;-2.70;63.60;;;;;;4900073;28;92222;-72
2021/01/18 12:21:19;;;;;;;180.17;77.37;;;-2.70;63.70;;;;;;4899748;28;93261;-72
2021/01/18 12:23:45;;;;;;;179.40;81.63;;;-2.60;63.40;;;;;;4900086;28;96411;-71
2021/01/18 12:26:21;;;;;;;163.83;76.47;;;-2.50;63.60;;;;;;4900554;28;91850;-73
2021/01/18 12:28:48;;;;;;;180.93;81.83;;;-2.40;63.40;;;;;;4884506;28;92140;-72
2021/01/18 12:31:15;;;;;;;170.00;78.60;;;-2.40;63.20;;;;;;4900905;28;92434;-73
2021/01/18 12:33:42;;;;;;;168.30;78.27;;;-2.50;63.10;;;;;;4899955;28;95726;-72
2021/01/18 12:36:08;;;;;;;168.63;77.17;;;-2.40;63.40;;;;;;4900091;28;92083;-74